createdAt,value
2018-06-16T00:01:07.985Z,52.04
2018-06-16T00:03:36.621Z,51.85
2018-06-16T00:06:05.376Z,52.15
2018-06-16T00:08:34.141Z,52.38
2018-06-16T00:11:02.954Z,52.31
2018-06-16T00:13:31.642Z,51.99
2018-06-16T00:16:00.391Z,52.17
2018-06-16T00:18:29.054Z,52.42
2018-06-16T00:20:57.763Z,51.98
2018-06-16T00:23:26.466Z,52.56
2018-06-16T00:25:55.156Z,53.09
2018-06-16T00:28:23.864Z,53.17
2018-06-16T00:30:52.676Z,53.03
2018-06-16T00:33:21.427Z,52.51
2018-06-16T00:35:50.097Z,52.64
2018-06-16T00:38:18.815Z,52.24
2018-06-16T00:40:47.697Z,52.60
2018-06-16T00:43:16.458Z,52.38
2018-06-16T00:45:45.254Z,52.18
2018-06-16T00:48:14.002Z,52.07
2018-06-16T00:50:42.690Z,52.80
2018-06-16T00:53:11.396Z,52.68
2018-06-16T00:55:40.373Z,52.07
2018-06-16T00:58:09.754Z,52.23
2018-06-16T01:00:38.608Z,52.20
2018-06-16T01:03:07.370Z,52.56
2018-06-16T01:05:36.046Z,51.92
2018-06-16T01:08:05.426Z,52.09
2018-06-16T01:10:34.177Z,52.07
2018-06-16T01:13:02.910Z,52.17
2018-06-16T01:15:31.679Z,51.99
2018-06-16T01:18:00.385Z,52.25
2018-06-16T01:20:29.139Z,51.62
2018-06-16T01:22:57.809Z,51.77
2018-06-16T01:25:26.570Z,52.16
2018-06-16T01:27:55.389Z,52.38
2018-06-16T01:30:24.219Z,51.92
2018-06-16T01:32:52.935Z,51.69
2018-06-16T01:35:21.786Z,52.19
2018-06-16T01:37:50.473Z,52.62
2018-06-16T01:40:19.132Z,51.77
2018-06-16T01:42:47.785Z,51.72
2018-06-16T01:45:16.434Z,52.09
2018-06-16T01:47:45.101Z,52.35
2018-06-16T01:50:13.813Z,52.12
2018-06-16T01:52:42.501Z,52.31
2018-06-16T01:55:11.179Z,52.45
2018-06-16T01:57:39.845Z,52.07
2018-06-16T02:00:08.670Z,51.68
2018-06-16T02:02:37.397Z,52.04
2018-06-16T02:05:06.844Z,52.36
2018-06-16T02:07:35.569Z,52.56
2018-06-16T02:10:04.364Z,52.48
2018-06-16T02:12:33.021Z,52.33
2018-06-16T02:15:01.707Z,52.60
2018-06-16T02:17:30.393Z,52.68
2018-06-16T02:19:59.025Z,53.38
2018-06-16T02:22:27.759Z,53.18
2018-06-16T02:24:56.437Z,53.10
2018-06-16T02:27:25.167Z,53.81
2018-06-16T02:29:53.868Z,53.90
2018-06-16T02:32:22.520Z,54.38
2018-06-16T02:34:51.151Z,53.75
2018-06-16T02:37:19.780Z,54.71
2018-06-16T02:39:48.439Z,54.31
2018-06-16T02:42:17.097Z,54.11
2018-06-16T02:44:45.726Z,54.37
2018-06-16T02:47:14.422Z,55.12
2018-06-16T02:49:43.140Z,54.75
2018-06-16T02:52:11.908Z,54.94
2018-06-16T02:54:40.497Z,55.31
2018-06-16T02:57:09.591Z,55.57
2018-06-16T02:59:38.245Z,55.68
2018-06-16T03:02:06.970Z,55.70
2018-06-16T03:04:35.666Z,55.46
2018-06-16T03:07:04.366Z,55.17
2018-06-16T03:09:33.063Z,55.28
2018-06-16T03:12:01.785Z,55.12
2018-06-16T03:14:30.415Z,54.93
2018-06-16T03:16:59.050Z,55.36
2018-06-16T03:19:27.678Z,55.36
2018-06-16T03:21:56.412Z,55.42
2018-06-16T03:24:25.067Z,55.50
2018-06-16T03:26:53.757Z,55.54
2018-06-16T03:29:22.399Z,55.51
2018-06-16T03:31:51.028Z,55.33
2018-06-16T03:34:19.723Z,55.56
2018-06-16T03:36:48.402Z,55.49
2018-06-16T03:39:17.029Z,54.62
2018-06-16T03:41:45.699Z,54.82
2018-06-16T03:44:14.339Z,55.38
2018-06-16T03:46:42.983Z,55.52
2018-06-16T03:49:12.561Z,55.42
2018-06-16T03:51:41.186Z,55.22
2018-06-16T03:54:09.822Z,54.85
2018-06-16T03:56:38.742Z,54.18
2018-06-16T03:59:07.444Z,54.81
2018-06-16T04:01:36.069Z,54.12
2018-06-16T04:04:05.439Z,54.09
2018-06-16T04:06:34.113Z,54.07
2018-06-16T04:09:02.811Z,54.42
2018-06-16T04:11:31.507Z,54.37
2018-06-16T04:14:00.215Z,53.68
2018-06-16T04:16:28.937Z,53.75
2018-06-16T04:18:57.670Z,53.26
2018-06-16T04:21:26.336Z,53.67
2018-06-16T04:23:55.027Z,53.37
2018-06-16T04:26:23.683Z,54.15
2018-06-16T04:28:52.425Z,53.88
2018-06-16T04:31:21.124Z,53.86
2018-06-16T04:33:50.681Z,53.75
2018-06-16T04:36:20.004Z,53.50
2018-06-16T04:38:48.663Z,52.97
2018-06-16T04:41:17.306Z,53.05
2018-06-16T04:43:45.987Z,53.35
2018-06-16T04:46:14.635Z,52.72
2018-06-16T04:48:43.332Z,53.04
2018-06-16T04:51:12.149Z,53.66
2018-06-16T04:53:40.803Z,53.31
2018-06-16T04:56:09.478Z,53.35
2018-06-16T04:58:38.206Z,52.84
2018-06-16T05:01:06.819Z,53.11
2018-06-16T05:03:35.483Z,52.68
2018-06-16T05:06:04.186Z,52.99
2018-06-16T05:08:32.872Z,52.66
2018-06-16T05:11:01.468Z,53.02
2018-06-16T05:13:30.165Z,53.14
2018-06-16T05:15:58.829Z,53.31
2018-06-16T05:18:27.472Z,53.27
2018-06-16T05:20:56.197Z,52.49
2018-06-16T05:23:24.927Z,52.58
2018-06-16T05:25:53.574Z,52.32
2018-06-16T05:28:22.256Z,52.41
2018-06-16T05:30:50.872Z,51.67
2018-06-16T05:33:19.536Z,50.89
2018-06-16T05:35:48.897Z,51.47
2018-06-16T05:38:17.652Z,50.69
2018-06-16T05:40:46.314Z,50.91
2018-06-16T05:43:15.035Z,50.66
2018-06-16T05:45:44.113Z,50.24
2018-06-16T05:48:12.835Z,49.88
2018-06-16T05:50:41.514Z,49.84
2018-06-16T05:53:10.205Z,49.83
2018-06-16T05:55:38.881Z,49.64
2018-06-16T05:58:07.565Z,49.44
2018-06-16T06:00:36.259Z,49.32
2018-06-16T06:03:05.220Z,48.99
2018-06-16T06:05:33.959Z,49.35
2018-06-16T06:08:02.615Z,49.54
2018-06-16T06:10:31.368Z,49.71
2018-06-16T06:13:00.007Z,49.75
2018-06-16T06:15:29.663Z,49.38
2018-06-16T06:17:58.413Z,48.98
2018-06-16T06:20:27.085Z,48.68
2018-06-16T06:22:55.763Z,48.52
2018-06-16T06:25:24.408Z,49.01
2018-06-16T06:27:53.143Z,48.71
2018-06-16T06:30:21.805Z,48.79
2018-06-16T06:32:50.490Z,49.44
2018-06-16T06:35:19.149Z,49.48
2018-06-16T06:37:47.838Z,49.33
2018-06-16T06:40:16.583Z,49.20
2018-06-16T06:42:45.346Z,49.30
2018-06-16T06:45:14.285Z,48.93
2018-06-16T06:47:42.974Z,49.30
2018-06-16T06:50:11.707Z,49.37
2018-06-16T06:52:40.404Z,49.39
2018-06-16T06:55:10.149Z,49.48
2018-06-16T06:57:40.990Z,49.79
2018-06-16T07:00:09.871Z,49.92
2018-06-16T07:02:38.527Z,49.95
2018-06-16T07:05:07.204Z,49.64
2018-06-16T07:07:35.999Z,49.58
2018-06-16T07:10:04.658Z,49.51
2018-06-16T07:12:33.407Z,49.36
2018-06-16T07:15:02.047Z,49.74
2018-06-16T07:17:30.732Z,49.30
2018-06-16T07:19:59.419Z,49.20
2018-06-16T07:22:28.071Z,49.56
2018-06-16T07:24:56.730Z,49.41
2018-06-16T07:27:25.364Z,48.68
2018-06-16T07:29:54.075Z,48.92
2018-06-16T07:32:22.780Z,48.48
2018-06-16T07:34:51.439Z,48.84
2018-06-16T07:37:20.137Z,48.58
2018-06-16T07:39:48.865Z,48.39
2018-06-16T07:42:17.523Z,47.99
2018-06-16T07:44:46.171Z,48.74
2018-06-16T07:47:14.872Z,48.77
2018-06-16T07:49:43.567Z,48.51
2018-06-16T07:52:12.255Z,48.65
2018-06-16T07:54:40.931Z,48.60
2018-06-16T07:59:43.474Z,49.00
2018-06-16T08:02:12.141Z,48.09
2018-06-16T08:04:40.848Z,47.95
2018-06-16T08:07:09.484Z,47.63
2018-06-16T08:09:38.437Z,47.69
2018-06-16T08:12:07.291Z,47.44
2018-06-16T08:14:36.014Z,47.12
2018-06-16T08:17:04.645Z,46.77
2018-06-16T08:19:33.260Z,46.62
2018-06-16T08:22:02.015Z,46.47
2018-06-16T08:24:30.952Z,47.19
2018-06-16T08:27:00.032Z,47.19
2018-06-16T08:29:28.747Z,47.07
2018-06-16T08:31:57.583Z,46.90
2018-06-16T08:34:26.242Z,46.83
2018-06-16T08:36:54.904Z,46.26
2018-06-16T08:39:23.539Z,46.03
2018-06-16T08:41:52.170Z,45.33
2018-06-16T08:44:20.811Z,46.41
2018-06-16T08:46:49.447Z,46.34
2018-06-16T08:49:18.084Z,45.87
2018-06-16T08:51:46.824Z,46.11
2018-06-16T08:54:15.470Z,46.04
2018-06-16T08:56:44.323Z,45.73
2018-06-16T08:59:13.139Z,45.28
2018-06-16T09:01:42.555Z,44.64
2018-06-16T09:04:11.242Z,44.83
2018-06-16T09:06:40.122Z,44.40
2018-06-16T09:09:09.459Z,45.04
2018-06-16T09:11:38.591Z,43.84
2018-06-16T09:14:07.253Z,43.65
2018-06-16T09:16:36.067Z,43.10
2018-06-16T09:19:05.184Z,42.99
2018-06-16T09:21:33.828Z,42.92
2018-06-16T09:24:02.568Z,43.27
2018-06-16T09:26:31.213Z,43.24
2018-06-16T09:28:59.833Z,43.01
2018-06-16T09:31:28.465Z,42.38
2018-06-16T09:33:57.310Z,42.09
2018-06-16T09:36:26.581Z,41.22
2018-06-16T09:38:55.239Z,41.16
2018-06-16T09:41:24.107Z,40.55
2018-06-16T09:43:52.861Z,41.38
2018-06-16T09:46:21.499Z,40.69
2018-06-16T09:48:50.174Z,39.52
2018-06-16T09:51:18.882Z,37.56
2018-06-16T09:53:47.590Z,37.49
2018-06-16T09:56:16.254Z,35.62
2018-06-16T09:58:44.902Z,35.41
2018-06-16T10:01:13.615Z,34.73
2018-06-16T10:03:42.294Z,35.03
2018-06-16T10:06:10.925Z,34.90
2018-06-16T10:08:39.689Z,35.70
2018-06-16T10:11:08.434Z,34.46
2018-06-16T10:13:37.169Z,34.68
2018-06-16T10:16:05.982Z,34.97
2018-06-16T10:18:34.690Z,34.73
2018-06-16T10:21:03.401Z,34.27
2018-06-16T10:23:32.115Z,35.08
2018-06-16T10:26:00.793Z,34.53
2018-06-16T10:28:29.439Z,34.17
2018-06-16T10:30:58.194Z,34.04
2018-06-16T10:33:26.823Z,33.48
2018-06-16T10:35:55.543Z,34.28
2018-06-16T10:38:24.829Z,34.14
2018-06-16T10:40:53.438Z,33.25
2018-06-16T10:43:22.105Z,33.44
2018-06-16T10:45:50.698Z,33.77
2018-06-16T10:48:19.345Z,33.75
2018-06-16T10:50:47.957Z,33.92
2018-06-16T10:53:16.558Z,33.60
2018-06-16T10:55:45.153Z,33.19
2018-06-16T10:58:13.777Z,32.63
2018-06-16T11:00:42.436Z,32.48
2018-06-16T11:03:11.105Z,31.87
2018-06-16T11:05:39.783Z,32.38
2018-06-16T11:08:08.548Z,32.28
2018-06-16T11:10:37.169Z,32.05
2018-06-16T11:13:05.829Z,32.05
2018-06-16T11:15:34.409Z,32.25
2018-06-16T11:18:03.023Z,32.52
2018-06-16T11:20:31.613Z,32.24
2018-06-16T11:23:00.194Z,32.56
2018-06-16T11:25:28.814Z,32.70
2018-06-16T11:27:57.418Z,32.46
2018-06-16T11:30:26.076Z,32.56
2018-06-16T11:32:54.690Z,32.85
2018-06-16T11:35:23.322Z,33.87
2018-06-16T11:37:51.988Z,33.11
2018-06-16T11:40:20.648Z,33.44
2018-06-16T11:42:49.403Z,33.27
2018-06-16T11:45:18.037Z,33.68
2018-06-16T11:47:47.421Z,34.07
2018-06-16T11:50:16.111Z,33.98
2018-06-16T11:52:44.746Z,34.70
2018-06-16T11:55:14.030Z,34.50
2018-06-16T11:57:42.768Z,34.90
2018-06-16T12:00:11.397Z,35.20
2018-06-16T12:02:40.153Z,36.01
2018-06-16T12:05:08.755Z,37.76
2018-06-16T12:07:38.072Z,38.79
2018-06-16T12:10:13.376Z,39.33
2018-06-16T12:12:42.113Z,40.19
2018-06-16T12:15:10.734Z,40.04
2018-06-16T12:17:39.365Z,40.49
2018-06-16T12:20:08.029Z,41.14
2018-06-16T12:22:36.693Z,40.94
2018-06-16T12:25:05.374Z,40.82
2018-06-16T12:27:33.995Z,40.92
2018-06-16T12:30:03.390Z,41.22
2018-06-16T12:32:32.047Z,41.73
2018-06-16T12:35:00.733Z,42.20
2018-06-16T12:37:29.355Z,41.87
2018-06-16T12:39:58.009Z,41.65
2018-06-16T12:42:26.754Z,41.00
2018-06-16T12:44:55.442Z,41.13
2018-06-16T12:47:24.069Z,40.82
2018-06-16T12:49:52.651Z,41.37
2018-06-16T12:52:21.338Z,41.48
2018-06-16T12:54:49.965Z,41.07
2018-06-16T12:57:18.644Z,40.67
2018-06-16T12:59:47.274Z,39.87
2018-06-16T13:02:15.860Z,39.85
2018-06-16T13:04:44.611Z,39.41
2018-06-16T13:07:13.585Z,39.19
2018-06-16T13:09:42.276Z,38.99
2018-06-16T13:12:10.923Z,39.73
2018-06-16T13:14:41.162Z,38.79
2018-06-16T13:17:09.759Z,39.20
2018-06-16T13:19:38.454Z,38.74
2018-06-16T13:22:07.148Z,38.49
2018-06-16T13:24:35.859Z,38.43
2018-06-16T13:27:04.554Z,38.12
2018-06-16T13:29:33.195Z,38.32
2018-06-16T13:32:01.902Z,38.43
2018-06-16T13:34:30.535Z,38.75
2018-06-16T13:36:59.198Z,38.92
2018-06-16T13:39:27.851Z,38.24
2018-06-16T13:41:56.485Z,38.59
2018-06-16T13:44:25.104Z,38.79
2018-06-16T13:46:56.474Z,38.94
2018-06-16T13:49:25.108Z,39.29
2018-06-16T13:51:53.758Z,39.19
2018-06-16T13:54:22.377Z,39.96
2018-06-16T13:56:51.042Z,40.08
2018-06-16T13:59:19.722Z,40.35
2018-06-16T14:01:48.323Z,39.88
2018-06-16T14:04:16.954Z,39.97
2018-06-16T14:06:45.566Z,40.49
2018-06-16T14:09:14.194Z,40.94
2018-06-16T14:11:42.843Z,40.84
2018-06-16T14:14:11.517Z,40.96
2018-06-16T14:16:40.222Z,40.98
2018-06-16T14:19:08.905Z,40.27
2018-06-16T14:21:37.553Z,41.00
2018-06-16T14:24:11.674Z,41.71
2018-06-16T14:26:42.030Z,41.21
2018-06-16T14:29:10.748Z,40.94
2018-06-16T14:31:39.434Z,40.59
2018-06-16T14:34:08.112Z,41.05
2018-06-16T14:36:39.332Z,40.17
2018-06-16T14:39:09.059Z,40.48
2018-06-16T14:41:37.659Z,40.44
2018-06-16T14:44:06.950Z,40.38
2018-06-16T14:46:35.607Z,39.88
2018-06-16T14:49:04.386Z,39.74
2018-06-16T14:51:33.032Z,39.92
2018-06-16T14:54:01.719Z,39.58
2018-06-16T14:56:30.343Z,39.50
2018-06-16T14:58:58.984Z,39.75
2018-06-16T15:01:27.703Z,39.28
2018-06-16T15:03:56.295Z,40.03
2018-06-16T15:06:24.962Z,40.06
2018-06-16T15:08:53.684Z,40.12
2018-06-16T15:11:22.294Z,39.88
2018-06-16T15:13:53.301Z,39.66
2018-06-16T15:16:22.239Z,39.96
2018-06-16T15:18:50.941Z,40.32
2018-06-16T15:21:19.598Z,39.81
2018-06-16T15:23:50.598Z,40.11
2018-06-16T15:26:20.134Z,39.78
2018-06-16T15:28:51.947Z,39.85
2018-06-16T15:31:20.546Z,40.09
2018-06-16T15:33:49.150Z,39.65
2018-06-16T15:36:19.013Z,39.62
2018-06-16T15:38:47.725Z,39.75
2018-06-16T15:41:16.370Z,40.11
2018-06-16T15:43:45.020Z,40.17
2018-06-16T15:46:13.691Z,40.39
2018-06-16T15:48:42.828Z,40.54
2018-06-16T15:51:11.522Z,41.45
2018-06-16T15:53:40.144Z,41.12
2018-06-16T15:56:08.838Z,41.45
2018-06-16T15:58:37.501Z,41.41
2018-06-16T16:01:06.160Z,42.04
2018-06-16T16:03:34.762Z,42.07
2018-06-16T16:06:03.390Z,42.24
2018-06-16T16:08:32.038Z,42.38
2018-06-16T16:11:00.694Z,42.93
2018-06-16T16:13:29.333Z,42.52
2018-06-16T16:15:57.936Z,42.48
2018-06-16T16:18:26.569Z,42.11
2018-06-16T16:20:55.334Z,42.73
2018-06-16T16:23:23.965Z,42.07
2018-06-16T16:25:52.646Z,42.12
2018-06-16T16:28:21.330Z,41.18
2018-06-16T16:30:50.009Z,41.10
2018-06-16T16:33:18.745Z,41.88
2018-06-16T16:35:47.890Z,41.05
2018-06-16T16:38:16.570Z,41.46
2018-06-16T16:40:45.305Z,41.91
2018-06-16T16:43:13.958Z,41.49
2018-06-16T16:45:42.738Z,41.28
2018-06-16T16:48:11.453Z,42.00
2018-06-16T16:50:40.810Z,44.34
2018-06-16T16:53:09.436Z,46.13
2018-06-16T16:55:38.176Z,47.00
2018-06-16T16:58:06.869Z,47.73
2018-06-16T17:00:35.477Z,48.90
2018-06-16T17:03:04.098Z,49.17
2018-06-16T17:05:32.749Z,48.69
2018-06-16T17:08:01.446Z,48.61
2018-06-16T17:10:30.124Z,48.85
2018-06-16T17:12:58.851Z,48.65
2018-06-16T17:15:27.548Z,48.30
2018-06-16T17:17:56.172Z,49.09
2018-06-16T17:20:24.880Z,49.45
2018-06-16T17:22:53.510Z,49.60
2018-06-16T17:25:22.102Z,48.95
2018-06-16T17:27:50.791Z,48.81
2018-06-16T17:30:19.390Z,48.92
2018-06-16T17:32:48.051Z,48.55
2018-06-16T17:35:17.402Z,48.72
2018-06-16T17:37:46.039Z,48.86
2018-06-16T17:40:14.723Z,48.77
2018-06-16T17:42:43.415Z,48.09
2018-06-16T17:45:12.116Z,47.51
2018-06-16T17:47:40.754Z,47.87
2018-06-16T17:50:09.508Z,48.02
2018-06-16T17:52:38.166Z,48.08
2018-06-16T17:55:06.818Z,47.62
2018-06-16T17:57:35.498Z,47.74
2018-06-16T18:00:04.614Z,47.82
2018-06-16T18:02:33.283Z,47.83
2018-06-16T18:05:02.011Z,47.46
2018-06-16T18:07:30.735Z,47.57
2018-06-16T18:09:59.435Z,47.73
2018-06-16T18:12:28.133Z,47.29
2018-06-16T18:14:56.797Z,47.17
2018-06-16T18:17:25.481Z,47.77
2018-06-16T18:19:55.396Z,47.39
2018-06-16T18:22:24.730Z,48.03
2018-06-16T18:24:53.404Z,48.34
2018-06-16T18:27:24.091Z,48.09
2018-06-16T18:29:52.807Z,48.30
2018-06-16T18:32:22.865Z,48.08
2018-06-16T18:34:52.235Z,48.43
2018-06-16T18:37:20.863Z,47.83
2018-06-16T18:39:49.596Z,48.52
2018-06-16T18:42:18.294Z,48.30
2018-06-16T18:44:46.984Z,48.00
2018-06-16T18:47:15.665Z,48.58
2018-06-16T18:49:44.400Z,48.40
2018-06-16T18:52:13.057Z,48.27
2018-06-16T18:54:41.658Z,48.46
2018-06-16T18:57:10.413Z,48.74
2018-06-16T18:59:39.086Z,48.58
2018-06-16T19:02:07.827Z,48.97
2018-06-16T19:04:36.478Z,48.92
2018-06-16T19:07:05.831Z,49.32
2018-06-16T19:09:34.517Z,48.48
2018-06-16T19:12:03.241Z,48.95
2018-06-16T19:14:31.957Z,48.63
2018-06-16T19:17:00.652Z,48.80
2018-06-16T19:19:29.390Z,48.57
2018-06-16T19:21:58.073Z,48.58
2018-06-16T19:24:26.716Z,48.70
2018-06-16T19:26:55.427Z,49.73
2018-06-16T19:29:24.064Z,49.20
2018-06-16T19:31:52.831Z,49.16
2018-06-16T19:34:21.507Z,49.31
2018-06-16T19:36:50.230Z,48.89
2018-06-16T19:39:18.927Z,49.46
2018-06-16T19:41:47.623Z,48.79
2018-06-16T19:44:16.246Z,49.97
2018-06-16T19:46:44.829Z,50.25
2018-06-16T19:49:13.471Z,50.33
2018-06-16T19:51:42.479Z,50.21
2018-06-16T19:54:11.106Z,49.22
2018-06-16T19:56:40.650Z,49.43
2018-06-16T19:59:09.281Z,49.82
2018-06-16T20:01:37.991Z,50.15
2018-06-16T20:04:06.668Z,49.79
2018-06-16T20:06:35.440Z,50.25
2018-06-16T20:09:05.012Z,50.47
2018-06-16T20:11:33.694Z,50.19
2018-06-16T20:14:02.607Z,49.95
2018-06-16T20:16:31.274Z,50.59
2018-06-16T20:19:00.535Z,50.51
2018-06-16T20:21:29.577Z,50.74
2018-06-16T20:23:58.514Z,50.47
2018-06-16T20:26:27.160Z,50.96
2018-06-16T20:28:55.863Z,51.34
2018-06-16T20:31:24.512Z,50.80
2018-06-16T20:33:54.431Z,51.59
2018-06-16T20:36:23.142Z,51.46
2018-06-16T20:38:51.797Z,50.98
2018-06-16T20:41:20.412Z,51.75
2018-06-16T20:43:49.134Z,51.92
2018-06-16T20:46:17.753Z,52.15
2018-06-16T20:48:46.396Z,52.06
2018-06-16T20:51:15.055Z,51.98
2018-06-16T20:53:43.716Z,52.17
2018-06-16T20:56:13.284Z,52.05
2018-06-16T20:58:41.934Z,51.86
2018-06-16T21:01:10.644Z,51.67
2018-06-16T21:03:40.498Z,51.67
2018-06-16T21:06:09.188Z,52.71
2018-06-16T21:08:37.762Z,52.12
2018-06-16T21:11:06.453Z,52.11
2018-06-16T21:13:35.629Z,52.60
2018-06-16T21:16:04.287Z,52.59
2018-06-16T21:18:33.000Z,51.80
2018-06-16T21:21:01.609Z,51.96
2018-06-16T21:23:30.329Z,51.80
2018-06-16T21:25:58.981Z,52.13
2018-06-16T21:28:27.672Z,51.99
2018-06-16T21:30:56.238Z,51.27
2018-06-16T21:33:25.600Z,51.11
2018-06-16T21:35:55.254Z,51.24
2018-06-16T21:38:23.898Z,51.35
2018-06-16T21:40:52.538Z,51.42
2018-06-16T21:43:21.183Z,51.69
2018-06-16T21:45:49.906Z,51.86
2018-06-16T21:48:18.570Z,52.28
2018-06-16T21:50:47.278Z,52.21
2018-06-16T21:53:15.881Z,52.44
2018-06-16T21:55:45.319Z,52.76
2018-06-16T21:58:13.913Z,52.68
2018-06-16T22:00:42.586Z,53.37
2018-06-16T22:03:11.273Z,52.86
2018-06-16T22:05:39.945Z,53.05
2018-06-16T22:08:14.101Z,53.56
2018-06-16T22:10:42.753Z,53.35
2018-06-16T22:13:14.042Z,53.49
2018-06-16T22:15:42.742Z,53.18
2018-06-16T22:18:12.211Z,53.25
2018-06-16T22:20:40.878Z,53.50
2018-06-16T22:23:09.500Z,52.87
2018-06-16T22:25:38.688Z,53.14
2018-06-16T22:28:07.891Z,53.44
2018-06-16T22:30:36.514Z,52.86
2018-06-16T22:33:05.338Z,53.44
2018-06-16T22:35:34.214Z,52.97
2018-06-16T22:38:02.884Z,53.61
2018-06-16T22:40:31.483Z,53.07
2018-06-16T22:43:00.238Z,53.94
2018-06-16T22:45:32.171Z,53.69
2018-06-16T22:48:01.974Z,53.23
2018-06-16T22:50:32.700Z,53.33
2018-06-16T22:53:01.405Z,53.02
2018-06-16T22:55:30.864Z,53.34
2018-06-16T22:58:01.837Z,53.58
2018-06-16T23:00:32.423Z,53.60
2018-06-16T23:03:01.086Z,53.56
2018-06-16T23:05:29.782Z,53.84
2018-06-16T23:07:58.494Z,54.29
2018-06-16T23:10:27.119Z,54.62
2018-06-16T23:12:56.397Z,55.10
2018-06-16T23:15:25.083Z,55.35
2018-06-16T23:17:53.758Z,55.44
2018-06-16T23:20:22.393Z,56.03
2018-06-16T23:22:51.029Z,55.56
2018-06-16T23:25:19.665Z,55.70
2018-06-16T23:27:48.344Z,55.18
2018-06-16T23:30:17.290Z,55.37
2018-06-16T23:32:46.741Z,55.76
2018-06-16T23:35:15.416Z,55.52
2018-06-16T23:37:44.173Z,55.34
2018-06-16T23:40:12.746Z,56.09
2018-06-16T23:42:41.355Z,56.24
2018-06-16T23:45:09.990Z,56.08
2018-06-16T23:47:38.685Z,56.43
2018-06-16T23:50:07.353Z,56.10
2018-06-16T23:52:35.965Z,56.60
2018-06-16T23:55:04.610Z,56.44
2018-06-16T23:57:33.253Z,57.17
